Rumbley, Maryland
Current Conditions -  °F | °C
As of 2:54 PM on Wednesday 28 Jan 2015 (Local Time) from KWAL Reporting Station
Clear Clear  
Wind Chill: 28°   Ceiling: Unl
Heat Index: 36°   Visibility: 10mi
Dew Point: 10°   Wind: 13mph
Humidity: 34%   Direction: 330°NNW
Pressure: 30.16"   Gusts: NA
Location:  38.0995°N, 75.7422°W
Report Text: KWAL 281954Z 33011KT 10SM CLR 02/M12 A3016 RMK AO2 SLP209 T00221122
Loading
Personal Weather Stations






























Interactive Weather Map New forecast layout! Learn more

10-Day Weather Forecast

Advertisements
Track Severe Weather on mobile